Main page
METAR-TAF:

METAR-TAF

Airports :

Leknes Airport

Leknes, Norway

latitude: 68-09N, longitude: 013-37E, elevation: 2 m

Current weather observation

The report was made 2 hours and 32 minutes ago, at 21:20 UTC
Wind 18 kt from the South with gusts up to 28 kt
Temperature 1°C
Humidity 100%
Pressure 1003 hPa
Visibility: 7000 m
light snow

METAR: ENLK 302120Z 18018G28KT 7000 -SN VV010 01/01 Q1003

Time: 01:52 (23:52 UTC)


TAF: missing

Weather observations and forecasts of more than 4000 airports (METAR and TAF reports).

The available stations are represented by yellow and red dots on the map.

Hover mouse over dot to see the name of the station.

Then click to see weather observations and forecasts.

To change the map : click on the green buttons with a black cross to zoom in, on the green button with a dash to zoom out, or on the green arrows for adjacent maps.


METAR-TAF: